Time;durP1;ratioP1;P1;durP2;ratioP2;P2;SDS_P1;SDS_P2;PMS_P1;PMS_P2;Temp;Humidity;BMP_temperature;BMP_pressure;BME280_temperature;BME280_humidity;BME280_pressure;Samples;Min_cycle;Max_cycle;Signal;HPM_P1;HPM_P2
2023/06/23 00:01:01;;;;;;;9.02;6.68;;;18.10;99.90;;;;;;5020803;28;20049;-74
2023/06/23 00:03:27;;;;;;;11.93;7.35;;;18.10;99.90;;;;;;5017130;28;20033;-74
2023/06/23 00:05:53;;;;;;;11.20;6.78;;;18.10;99.90;;;;;;5025400;28;20033;-74
2023/06/23 00:08:19;;;;;;;7.57;6.10;;;18.10;99.90;;;;;;5018007;28;20045;-74
2023/06/23 00:10:44;;;;;;;10.10;6.50;;;18.10;99.90;;;;;;5020112;28;20409;-75
2023/06/23 00:13:11;;;;;;;10.50;6.93;;;18.00;99.90;;;;;;5018793;28;20049;-74
2023/06/23 00:15:36;;;;;;;8.10;5.80;;;18.00;99.90;;;;;;5026692;28;20080;-74
2023/06/23 00:18:02;;;;;;;8.30;5.95;;;18.00;99.90;;;;;;5042911;28;20073;-74
2023/06/23 00:20:28;;;;;;;9.82;6.60;;;18.10;99.90;;;;;;5045505;28;20044;-74
2023/06/23 00:22:53;;;;;;;7.97;6.68;;;18.10;99.90;;;;;;5029055;28;20041;-75
2023/06/23 00:25:19;;;;;;;8.70;6.05;;;18.10;99.90;;;;;;5029956;28;20041;-75
2023/06/23 00:27:45;;;;;;;9.65;6.82;;;18.00;99.90;;;;;;5045316;28;20037;-74
2023/06/23 00:30:11;;;;;;;7.60;6.30;;;18.00;99.90;;;;;;5027094;28;20385;-74
2023/06/23 00:32:38;;;;;;;8.98;6.63;;;18.00;99.90;;;;;;5028572;28;20120;-74
2023/06/23 00:35:05;;;;;;;10.60;6.45;;;18.00;99.90;;;;;;5044503;28;20041;-74
2023/06/23 00:37:31;;;;;;;6.45;5.18;;;18.00;99.90;;;;;;5029506;28;20120;-75
2023/06/23 00:39:56;;;;;;;7.47;6.07;;;18.00;99.90;;;;;;5043366;28;20116;-75
2023/06/23 00:42:22;;;;;;;9.68;6.28;;;18.00;99.90;;;;;;5044198;28;20065;-74
2023/06/23 00:44:47;;;;;;;9.00;5.80;;;18.00;99.90;;;;;;5028227;28;20034;-74
2023/06/23 00:47:17;;;;;;;7.28;5.35;;;17.90;99.90;;;;;;5028644;28;20047;-74
2023/06/23 00:49:45;;;;;;;5.95;4.75;;;17.90;99.90;;;;;;5028738;28;20056;-75
2023/06/23 00:52:11;;;;;;;8.20;4.80;;;17.90;99.90;;;;;;5028194;28;20029;-74
2023/06/23 00:54:36;;;;;;;6.18;4.63;;;17.90;99.90;;;;;;5028712;28;20409;-74
2023/06/23 00:57:03;;;;;;;7.03;4.93;;;17.90;99.90;;;;;;5030804;28;20041;-74
2023/06/23 00:59:28;;;;;;;7.53;5.03;;;17.80;99.90;;;;;;5028301;28;20045;-74
2023/06/23 01:01:59;;;;;;;8.52;6.68;;;17.80;99.90;;;;;;5028244;28;20112;-74
2023/06/23 01:04:32;;;;;;;9.23;6.90;;;17.70;99.90;;;;;;5028152;28;20037;-74
2023/06/23 01:07:16;;;;;;;6.60;5.95;;;17.70;99.90;;;;;;5022859;28;20052;-74
2023/06/23 01:10:15;;;;;;;8.68;6.18;;;17.70;99.90;;;;;;5030093;28;20041;-74
2023/06/23 01:13:03;;;;;;;8.57;6.10;;;17.60;99.90;;;;;;5031304;28;20045;-74
2023/06/23 01:15:34;;;;;;;8.68;6.53;;;17.60;99.90;;;;;;5032665;28;20460;-74
2023/06/23 01:18:37;;;;;;;8.40;5.93;;;17.60;99.90;;;;;;5025168;28;20068;-74
2023/06/23 01:21:06;;;;;;;8.85;6.05;;;17.60;99.90;;;;;;5013725;28;20042;-74
2023/06/23 01:23:31;;;;;;;9.93;6.25;;;17.60;99.90;;;;;;5024617;28;20382;-74
2023/06/23 01:26:15;;;;;;;10.05;6.47;;;17.60;99.90;;;;;;5031341;28;20040;-74
2023/06/23 01:28:41;;;;;;;10.27;6.63;;;17.50;99.90;;;;;;5030786;28;20065;-74
2023/06/23 01:31:14;;;;;;;11.48;6.68;;;17.50;99.90;;;;;;5032799;28;20041;-74
2023/06/23 01:33:48;;;;;;;8.73;6.00;;;17.40;99.90;;;;;;5048247;28;20083;-74
2023/06/23 01:36:21;;;;;;;11.52;6.32;;;17.40;99.90;;;;;;5031662;28;20041;-74
2023/06/23 01:38:52;;;;;;;9.00;6.78;;;17.40;99.90;;;;;;5032205;28;20496;-74
2023/06/23 01:41:23;;;;;;;9.60;6.88;;;17.30;99.90;;;;;;5031626;28;20403;-74
2023/06/23 01:43:53;;;;;;;9.75;7.30;;;17.30;99.90;;;;;;5028447;28;20040;-74
2023/06/23 01:46:25;;;;;;;9.80;6.95;;;17.30;99.90;;;;;;5031874;28;20401;-74
2023/06/23 01:48:55;;;;;;;8.65;6.90;;;17.30;99.90;;;;;;5024407;28;20560;-74
2023/06/23 01:51:23;;;;;;;11.70;7.00;;;17.30;99.90;;;;;;5028825;28;20045;-74
2023/06/23 01:53:50;;;;;;;8.70;6.45;;;17.20;99.90;;;;;;5031375;28;20405;-74
2023/06/23 01:56:18;;;;;;;11.80;7.90;;;17.20;99.90;;;;;;5031048;28;20060;-74
2023/06/23 01:58:46;;;;;;;12.65;7.55;;;17.20;99.90;;;;;;5031385;28;20061;-75
2023/06/23 02:01:12;;;;;;;11.88;7.97;;;17.20;99.90;;;;;;5031157;28;20116;-74
2023/06/23 02:03:39;;;;;;;10.82;8.20;;;17.20;99.90;;;;;;5013512;28;20087;-75
2023/06/23 02:06:07;;;;;;;12.52;9.13;;;17.20;99.90;;;;;;5031595;28;20033;-74
2023/06/23 02:08:34;;;;;;;14.88;9.48;;;17.30;99.90;;;;;;5031395;28;20037;-75
2023/06/23 02:11:01;;;;;;;12.63;8.77;;;17.30;99.90;;;;;;5031505;28;20045;-74
2023/06/23 02:13:28;;;;;;;13.30;9.60;;;17.30;99.90;;;;;;5031036;28;20535;-74
2023/06/23 02:15:55;;;;;;;13.82;8.80;;;17.30;99.90;;;;;;5030370;28;20045;-74
2023/06/23 02:18:21;;;;;;;11.98;9.07;;;17.30;99.90;;;;;;5031862;28;20418;-74
2023/06/23 02:20:48;;;;;;;12.05;9.93;;;17.30;99.90;;;;;;5031383;28;20263;-75
2023/06/23 02:23:14;;;;;;;15.15;8.90;;;17.30;99.90;;;;;;5030678;28;20045;-74
2023/06/23 02:25:41;;;;;;;13.20;8.65;;;17.30;99.90;;;;;;5030571;28;20652;-74
2023/06/23 02:28:08;;;;;;;13.18;9.15;;;17.30;99.90;;;;;;5030787;28;20045;-74
2023/06/23 02:30:34;;;;;;;13.07;9.00;;;17.30;99.90;;;;;;5030512;28;20045;-74
2023/06/23 02:33:00;;;;;;;11.48;8.35;;;17.20;99.90;;;;;;5031455;28;20053;-74
2023/06/23 02:35:27;;;;;;;10.00;8.23;;;17.30;99.90;;;;;;5030846;28;20432;-74
2023/06/23 02:37:58;;;;;;;12.02;8.70;;;17.30;99.90;;;;;;5030954;28;20041;-74
2023/06/23 02:40:26;;;;;;;10.57;7.88;;;17.20;99.90;;;;;;5031035;28;20060;-74
2023/06/23 02:43:17;;;;;;;13.90;7.80;;;17.20;99.90;;;;;;5032357;28;20167;-74
2023/06/23 02:45:48;;;;;;;14.68;7.40;;;17.20;99.90;;;;;;5008748;28;20046;-75
2023/06/23 02:48:17;;;;;;;10.50;7.55;;;17.20;99.90;;;;;;5030671;28;20045;-74
2023/06/23 02:50:44;;;;;;;11.50;7.00;;;17.20;99.90;;;;;;5030314;28;20049;-75
2023/06/23 02:53:16;;;;;;;10.68;7.20;;;17.20;99.90;;;;;;5013677;28;20037;-74
2023/06/23 02:55:45;;;;;;;8.80;6.63;;;17.20;99.90;;;;;;5030435;28;20073;-74
2023/06/23 02:58:14;;;;;;;8.95;6.18;;;17.20;99.90;;;;;;5030461;28;20042;-74
2023/06/23 03:00:40;;;;;;;13.15;6.88;;;17.10;99.90;;;;;;5030208;28;20111;-74
2023/06/23 03:03:12;;;;;;;10.23;6.75;;;17.10;99.90;;;;;;5028248;28;20042;-74
2023/06/23 03:05:37;;;;;;;8.88;6.07;;;17.10;99.90;;;;;;5028702;28;20116;-74
2023/06/23 03:08:04;;;;;;;8.88;6.45;;;17.00;99.90;;;;;;5024092;28;20124;-75
2023/06/23 03:10:30;;;;;;;11.75;7.10;;;17.10;99.90;;;;;;5020136;28;20153;-74
2023/06/23 03:12:56;;;;;;;10.27;7.55;;;17.10;99.90;;;;;;5028703;28;20124;-74
2023/06/23 03:15:22;;;;;;;10.43;6.88;;;17.00;99.90;;;;;;5026038;28;20087;-74
2023/06/23 03:17:52;;;;;;;8.60;6.53;;;17.00;99.90;;;;;;5029152;28;20044;-75
2023/06/23 03:20:30;;;;;;;10.65;7.03;;;17.00;99.90;;;;;;5022476;28;20053;-74
2023/06/23 03:23:06;;;;;;;9.27;7.18;;;16.90;99.90;;;;;;5025709;28;20034;-74
2023/06/23 03:25:32;;;;;;;9.70;7.03;;;16.90;99.90;;;;;;5034469;28;20502;-74
2023/06/23 03:28:05;;;;;;;11.02;6.65;;;16.90;99.90;;;;;;5022056;28;20487;-75
2023/06/23 03:30:51;;;;;;;9.18;6.20;;;16.90;99.90;;;;;;5029090;28;20037;-74
2023/06/23 03:33:22;;;;;;;11.25;7.00;;;16.80;99.90;;;;;;5017773;28;20109;-74
2023/06/23 03:35:49;;;;;;;8.88;6.88;;;16.80;99.90;;;;;;5030322;28;20052;-74
2023/06/23 03:38:21;;;;;;;10.52;6.22;;;16.80;99.90;;;;;;5029620;28;20112;-74
2023/06/23 03:40:59;;;;;;;10.93;6.80;;;16.80;99.90;;;;;;5028405;28;20033;-74
2023/06/23 03:43:32;;;;;;;9.77;6.45;;;16.70;99.90;;;;;;5041166;28;20091;-73
2023/06/23 03:46:06;;;;;;;9.98;6.28;;;16.70;99.90;;;;;;5046583;28;20083;-74
2023/06/23 03:48:34;;;;;;;;;;;16.70;99.90;;;;;;5030869;28;20127;-74
2023/06/23 03:51:02;;;;;;;11.30;6.30;;;16.70;99.90;;;;;;5016903;28;19971;-74
2023/06/23 03:53:28;;;;;;;11.25;6.35;;;16.70;99.90;;;;;;5029779;28;20037;-74
2023/06/23 03:55:56;;;;;;;8.57;6.38;;;16.60;99.90;;;;;;5029998;28;20049;-74
2023/06/23 03:58:23;;;;;;;10.27;6.22;;;16.60;99.90;;;;;;5029860;28;20037;-74
2023/06/23 04:00:52;;;;;;;8.93;6.10;;;16.60;99.90;;;;;;5029892;28;20076;-74
2023/06/23 04:03:19;;;;;;;8.23;6.07;;;16.60;99.90;;;;;;5029545;28;20052;-74
2023/06/23 04:05:47;;;;;;;9.18;6.20;;;16.60;99.90;;;;;;5029769;28;20037;-74
2023/06/23 04:08:14;;;;;;;8.57;6.25;;;16.60;99.90;;;;;;5029862;28;20037;-74
2023/06/23 04:10:39;;;;;;;8.88;6.78;;;16.50;99.90;;;;;;5029747;28;20046;-74
2023/06/23 04:13:07;;;;;;;10.50;6.18;;;16.50;99.90;;;;;;5029750;28;20068;-74
2023/06/23 04:15:38;;;;;;;8.82;5.65;;;16.50;99.90;;;;;;5029692;28;20061;-74
2023/06/23 04:18:05;;;;;;;10.02;6.53;;;16.50;99.90;;;;;;5029729;28;20087;-74
2023/06/23 04:20:32;;;;;;;10.15;5.90;;;16.50;99.90;;;;;;5028393;28;20052;-74
2023/06/23 04:22:58;;;;;;;9.13;6.30;;;16.60;99.90;;;;;;5028703;28;20037;-74
2023/06/23 04:25:26;;;;;;;10.13;5.97;;;16.60;99.90;;;;;;5029655;28;20048;-75
2023/06/23 04:27:55;;;;;;;8.02;5.75;;;16.60;99.90;;;;;;5045985;28;20049;-74
2023/06/23 04:30:22;;;;;;;8.30;6.32;;;16.70;99.90;;;;;;5046021;28;20156;-75
2023/06/23 04:32:48;;;;;;;7.88;5.95;;;16.70;99.90;;;;;;5045818;28;20056;-74
2023/06/23 04:35:13;;;;;;;9.80;6.72;;;16.70;99.90;;;;;;5046426;28;20037;-74
2023/06/23 04:37:46;;;;;;;9.10;7.00;;;16.60;99.90;;;;;;5029481;28;20076;-75
2023/06/23 04:40:46;;;;;;;10.27;6.85;;;16.60;99.90;;;;;;5046196;28;20044;-74
2023/06/23 04:43:14;;;;;;;7.80;6.88;;;16.60;99.90;;;;;;5014623;28;20057;-74
2023/06/23 04:45:59;;;;;;;9.35;6.82;;;16.60;99.90;;;;;;5033754;28;20404;-74
2023/06/23 04:48:29;;;;;;;10.43;7.57;;;16.50;99.90;;;;;;5033512;28;20044;-74
2023/06/23 04:50:58;;;;;;;11.23;7.38;;;16.50;99.90;;;;;;5043615;28;20037;-75
2023/06/23 04:53:30;;;;;;;11.35;7.25;;;16.50;99.90;;;;;;5048408;28;20058;-74
2023/06/23 04:56:00;;;;;;;9.88;6.63;;;16.50;99.90;;;;;;5031663;28;20041;-74
2023/06/23 04:58:30;;;;;;;9.23;7.03;;;16.50;99.90;;;;;;5031404;28;20046;-75
2023/06/23 05:00:57;;;;;;;11.85;8.00;;;16.50;99.90;;;;;;5032764;28;20037;-74
2023/06/23 05:03:24;;;;;;;10.25;7.68;;;16.50;99.90;;;;;;5032582;28;20037;-75
2023/06/23 05:05:55;;;;;;;10.70;7.68;;;16.60;99.90;;;;;;5031966;28;20474;-74
2023/06/23 05:08:25;;;;;;;10.95;7.25;;;16.60;99.90;;;;;;5050218;28;20060;-74
2023/06/23 05:10:52;;;;;;;10.10;7.70;;;16.60;99.90;;;;;;5029548;28;20444;-74
2023/06/23 05:13:19;;;;;;;13.68;8.10;;;16.60;99.90;;;;;;5031974;28;20508;-75
2023/06/23 05:15:47;;;;;;;13.93;7.93;;;16.60;99.90;;;;;;5030657;28;20045;-74
2023/06/23 05:18:17;;;;;;;12.55;7.78;;;16.60;99.90;;;;;;5030609;28;20052;-74
2023/06/23 05:20:45;;;;;;;9.35;7.78;;;16.70;99.90;;;;;;5029574;28;20417;-74
2023/06/23 05:23:13;;;;;;;9.80;8.13;;;16.70;99.90;;;;;;5026541;28;20033;-75
2023/06/23 05:25:40;;;;;;;11.15;8.18;;;16.70;99.90;;;;;;5014095;28;20132;-75
2023/06/23 05:28:06;;;;;;;12.20;7.88;;;16.70;99.90;;;;;;5026148;28;20056;-75
2023/06/23 05:30:35;;;;;;;12.32;8.27;;;16.70;99.90;;;;;;5031751;28;20037;-75
2023/06/23 05:33:02;;;;;;;13.38;7.35;;;16.70;99.90;;;;;;5023605;28;20048;-74
2023/06/23 05:35:30;;;;;;;10.48;7.68;;;16.70;99.90;;;;;;5024443;28;20052;-76
2023/06/23 05:37:57;;;;;;;10.73;7.32;;;16.70;99.90;;;;;;5031197;28;20566;-76
2023/06/23 05:40:23;;;;;;;11.85;7.90;;;16.70;99.90;;;;;;5030365;28;20041;-75
2023/06/23 05:42:48;;;;;;;10.65;7.45;;;16.80;99.90;;;;;;5030397;28;20381;-75
2023/06/23 05:45:14;;;;;;;12.15;7.47;;;16.80;99.90;;;;;;5030127;28;20041;-75
2023/06/23 05:47:59;;;;;;;12.23;7.90;;;16.80;99.90;;;;;;5029607;28;20052;-76
2023/06/23 05:50:33;;;;;;;12.05;7.53;;;16.80;99.90;;;;;;5027166;28;20087;-75
2023/06/23 05:53:04;;;;;;;11.15;8.27;;;16.80;99.90;;;;;;5030823;28;20037;-76
2023/06/23 05:55:32;;;;;;;9.48;6.82;;;16.90;99.90;;;;;;5028869;28;20038;-76
2023/06/23 05:58:02;;;;;;;14.43;8.00;;;16.90;99.90;;;;;;5030117;28;20451;-75
2023/06/23 06:00:38;;;;;;;9.40;7.07;;;17.00;99.90;;;;;;5029968;28;20072;-75
2023/06/23 06:03:07;;;;;;;11.45;7.70;;;17.00;99.90;;;;;;5024662;28;20092;-75
2023/06/23 06:05:34;;;;;;;9.70;7.70;;;17.20;99.90;;;;;;5014341;28;20055;-75
2023/06/23 06:08:01;;;;;;;12.48;8.13;;;17.40;99.90;;;;;;5031315;28;20038;-74
2023/06/23 06:10:28;;;;;;;11.05;8.50;;;17.70;99.90;;;;;;5046818;28;20053;-75
2023/06/23 06:12:55;;;;;;;10.95;8.40;;;17.90;99.90;;;;;;5029030;28;20044;-76
2023/06/23 06:15:22;;;;;;;10.70;8.18;;;18.10;99.90;;;;;;5031086;28;20103;-76
2023/06/23 06:17:49;;;;;;;8.38;6.82;;;18.30;99.90;;;;;;5027247;28;20116;-76
2023/06/23 06:20:17;;;;;;;8.55;7.28;;;18.40;99.90;;;;;;5029474;28;20397;-74
2023/06/23 06:22:44;;;;;;;8.95;6.60;;;18.60;99.90;;;;;;5029671;28;20085;-76
2023/06/23 06:25:12;;;;;;;9.63;7.53;;;18.60;99.90;;;;;;5031198;28;20405;-75
2023/06/23 06:27:39;;;;;;;8.98;6.00;;;18.60;99.90;;;;;;5030393;28;20116;-75
2023/06/23 06:30:07;;;;;;;7.60;6.20;;;18.80;99.90;;;;;;5031647;28;20044;-75
2023/06/23 06:32:37;;;;;;;9.65;7.13;;;19.00;99.90;;;;;;5036422;28;20141;-75
2023/06/23 06:35:06;;;;;;;12.30;6.55;;;19.10;99.90;;;;;;5026136;28;20034;-75
2023/06/23 06:37:36;;;;;;;8.57;6.63;;;19.30;99.90;;;;;;5027698;28;20071;-75
2023/06/23 06:40:05;;;;;;;8.20;6.10;;;19.40;99.90;;;;;;5031564;28;20454;-75
2023/06/23 06:42:31;;;;;;;9.57;5.88;;;19.40;99.90;;;;;;5024921;28;20041;-75
2023/06/23 06:44:57;;;;;;;9.55;6.38;;;19.50;99.90;;;;;;5044592;28;20492;-76
2023/06/23 06:47:24;;;;;;;7.07;5.75;;;19.60;99.90;;;;;;5046733;28;20083;-75
2023/06/23 06:49:51;;;;;;;7.03;5.28;;;19.70;99.90;;;;;;5031284;28;20467;-76
2023/06/23 06:52:17;;;;;;;6.35;5.25;;;19.80;99.90;;;;;;5031215;28;20171;-76
2023/06/23 06:54:44;;;;;;;8.25;5.50;;;19.90;99.90;;;;;;5031255;28;20053;-76
2023/06/23 06:57:11;;;;;;;5.97;4.45;;;20.00;99.90;;;;;;5048187;28;20056;-76
2023/06/23 06:59:36;;;;;;;5.03;4.40;;;20.20;99.90;;;;;;5031325;28;20124;-75
2023/06/23 07:02:05;;;;;;;7.65;4.65;;;20.30;99.90;;;;;;5031040;28;20124;-75
2023/06/23 07:04:31;;;;;;;6.03;3.88;;;20.50;99.90;;;;;;5048019;28;20120;-75
2023/06/23 07:06:56;;;;;;;6.10;3.92;;;20.60;99.90;;;;;;5030939;28;20120;-75
2023/06/23 07:09:22;;;;;;;6.72;4.72;;;20.60;99.90;;;;;;5031090;28;20048;-75
2023/06/23 07:11:48;;;;;;;7.75;4.45;;;20.70;99.90;;;;;;5031200;28;20041;-75
2023/06/23 07:14:14;;;;;;;5.78;3.80;;;20.80;99.90;;;;;;5031286;28;20408;-76
2023/06/23 07:16:40;;;;;;;6.75;4.00;;;20.90;99.90;;;;;;5047593;28;20052;-76
2023/06/23 07:19:05;;;;;;;7.05;4.28;;;20.90;99.90;;;;;;5023899;28;20038;-76
2023/06/23 07:21:32;;;;;;;6.72;4.00;;;21.00;99.90;;;;;;5042200;28;20060;-76
2023/06/23 07:23:57;;;;;;;6.95;3.80;;;21.10;99.90;;;;;;5029358;28;20034;-76
2023/06/23 07:26:23;;;;;;;5.13;3.58;;;21.00;99.90;;;;;;5021431;28;20033;-75
2023/06/23 07:28:49;;;;;;;5.88;3.97;;;21.10;99.90;;;;;;5028284;28;20095;-75
2023/06/23 07:31:14;;;;;;;6.32;3.47;;;21.20;99.90;;;;;;5023718;28;20064;-75
2023/06/23 07:33:41;;;;;;;5.68;3.58;;;21.10;99.90;;;;;;5026337;28;20092;-77
2023/06/23 07:36:06;;;;;;;5.25;3.53;;;21.40;99.90;;;;;;5029756;28;20041;-75
2023/06/23 07:38:32;;;;;;;4.38;3.45;;;21.50;99.90;;;;;;5028167;28;20044;-76
2023/06/23 07:40:58;;;;;;;4.15;3.08;;;21.50;99.90;;;;;;5024663;28;20029;-77
2023/06/23 07:43:23;;;;;;;3.67;2.78;;;21.70;99.90;;;;;;5029459;28;20075;-75
2023/06/23 07:45:49;;;;;;;5.30;3.08;;;21.80;99.90;;;;;;5023236;28;20033;-75
2023/06/23 07:48:15;;;;;;;4.47;3.00;;;21.80;99.90;;;;;;5027974;28;20045;-75
2023/06/23 07:50:40;;;;;;;4.68;3.17;;;22.10;99.90;;;;;;5024271;28;20064;-75
2023/06/23 07:53:06;;;;;;;4.93;3.47;;;22.00;99.90;;;;;;5033472;28;20045;-77
2023/06/23 07:55:31;;;;;;;7.22;3.60;;;22.00;99.90;;;;;;5025288;28;20127;-75
2023/06/23 07:57:57;;;;;;;4.00;3.28;;;22.10;99.90;;;;;;5012070;28;20041;-76
2023/06/23 08:00:23;;;;;;;5.30;3.45;;;22.20;99.90;;;;;;5045700;28;20037;-74
2023/06/23 08:02:49;;;;;;;5.53;3.78;;;22.10;99.90;;;;;;5028752;28;20520;-74
2023/06/23 08:05:15;;;;;;;5.78;3.97;;;22.20;99.90;;;;;;5046089;28;20188;-76
2023/06/23 08:07:40;;;;;;;4.82;3.47;;;22.10;99.90;;;;;;5029051;28;20048;-76
2023/06/23 08:10:06;;;;;;;4.25;3.15;;;22.20;99.90;;;;;;5045980;28;20045;-75
2023/06/23 08:12:32;;;;;;;5.93;3.13;;;22.40;99.90;;;;;;5046176;28;20049;-76
2023/06/23 08:14:58;;;;;;;5.45;3.60;;;22.50;99.90;;;;;;5029618;28;20112;-75
2023/06/23 08:17:23;;;;;;;4.82;3.58;;;22.60;99.90;;;;;;5045490;28;20570;-75
2023/06/23 08:19:49;;;;;;;7.35;3.65;;;22.70;99.90;;;;;;5029587;28;20052;-76
2023/06/23 08:22:16;;;;;;;6.05;3.80;;;22.80;99.90;;;;;;5046125;28;20034;-75
2023/06/23 08:24:41;;;;;;;6.03;3.13;;;22.70;99.90;;;;;;5029726;28;20043;-75
2023/06/23 08:27:07;;;;;;;5.28;4.15;;;22.80;99.90;;;;;;5046179;28;20495;-75
2023/06/23 08:29:33;;;;;;;6.43;4.30;;;22.90;99.90;;;;;;5042430;28;20133;-75
2023/06/23 08:31:58;;;;;;;5.90;3.88;;;22.80;99.90;;;;;;5029454;28;20091;-75
2023/06/23 08:34:24;;;;;;;7.80;4.65;;;22.70;99.90;;;;;;5023057;28;20041;-75
2023/06/23 08:36:49;;;;;;;6.18;4.00;;;22.60;99.90;;;;;;5027254;28;20125;-76
2023/06/23 08:39:15;;;;;;;5.82;4.72;;;22.70;99.90;;;;;;5036199;28;20049;-76
2023/06/23 08:41:43;;;;;;;5.55;4.47;;;22.70;99.90;;;;;;5023575;28;20040;-76
2023/06/23 08:44:13;;;;;;;6.95;4.30;;;22.70;99.90;;;;;;5019134;28;20501;-76
2023/06/23 08:46:41;;;;;;;5.28;4.40;;;22.50;99.90;;;;;;5028458;28;20540;-75
2023/06/23 08:49:14;;;;;;;8.75;4.90;;;22.50;99.90;;;;;;5028524;28;20052;-76
2023/06/23 08:51:40;;;;;;;6.13;4.53;;;22.50;99.90;;;;;;5029086;28;20489;-76
2023/06/23 08:54:05;;;;;;;5.97;4.13;;;22.50;99.90;;;;;;5037304;28;20564;-76
2023/06/23 08:56:32;;;;;;;7.15;4.47;;;22.60;99.90;;;;;;5008683;28;20074;-74
2023/06/23 08:58:58;;;;;;;5.93;4.35;;;22.60;99.90;;;;;;5020997;28;20033;-77
2023/06/23 09:01:23;;;;;;;8.15;4.68;;;22.80;99.90;;;;;;5022734;28;20044;-76
2023/06/23 09:03:50;;;;;;;5.93;4.50;;;22.80;99.90;;;;;;5028403;28;20121;-75
2023/06/23 09:06:15;;;;;;;5.60;4.53;;;22.80;99.90;;;;;;5028723;28;20041;-75
2023/06/23 09:08:41;;;;;;;7.03;4.70;;;22.70;99.90;;;;;;5029108;28;20041;-76
2023/06/23 09:11:07;;;;;;;9.23;4.60;;;22.60;99.90;;;;;;5045219;28;20038;-75
2023/06/23 09:13:35;;;;;;;7.68;5.38;;;22.60;99.90;;;;;;5045431;28;20406;-74
2023/06/23 09:16:01;;;;;;;7.07;4.60;;;22.70;99.90;;;;;;5029167;28;20505;-75
2023/06/23 09:18:29;;;;;;;7.00;5.20;;;22.80;99.90;;;;;;5045778;28;20056;-75
2023/06/23 09:20:54;;;;;;;6.70;4.07;;;22.80;99.90;;;;;;5045107;28;20045;-74
2023/06/23 09:23:22;;;;;;;6.22;4.03;;;22.80;99.90;;;;;;5038644;28;20164;-75
2023/06/23 09:25:53;;;;;;;5.15;3.50;;;22.80;99.90;;;;;;5026005;28;20762;-75
2023/06/23 09:28:29;;;;;;;4.47;3.53;;;22.80;99.90;;;;;;5045951;28;20041;-76
2023/06/23 09:30:59;;;;;;;3.75;2.97;;;22.80;99.90;;;;;;5031180;28;20124;-76
2023/06/23 09:33:26;;;;;;;5.13;2.78;;;22.90;99.90;;;;;;5032944;28;20041;-75
2023/06/23 09:35:54;;;;;;;3.60;2.65;;;23.00;99.90;;;;;;5020650;28;20056;-75
2023/06/23 09:38:26;;;;;;;4.18;3.03;;;23.20;99.90;;;;;;5031020;28;20087;-75
2023/06/23 09:41:09;;;;;;;5.53;3.40;;;23.20;99.90;;;;;;5031707;28;20103;-75
2023/06/23 09:43:46;;;;;;;7.22;3.05;;;23.20;99.90;;;;;;5031722;28;20048;-75
2023/06/23 09:46:17;;;;;;;4.93;3.42;;;23.30;99.90;;;;;;5033889;28;20063;-75
2023/06/23 09:48:45;;;;;;;5.00;2.95;;;23.30;99.90;;;;;;5032204;28;20041;-75
2023/06/23 09:51:12;;;;;;;4.20;3.10;;;23.50;99.90;;;;;;5032322;28;20074;-75
2023/06/23 09:53:38;;;;;;;5.18;3.63;;;23.60;99.90;;;;;;5032051;28;20045;-76
2023/06/23 09:56:05;;;;;;;5.32;3.90;;;23.60;99.90;;;;;;5032773;28;20068;-76
2023/06/23 09:58:38;;;;;;;5.68;3.80;;;23.60;99.90;;;;;;5048810;28;20124;-76
2023/06/23 10:01:18;;;;;;;5.68;3.80;;;23.60;99.90;;;;;;5048813;28;20025;-76
2023/06/23 10:03:55;;;;;;;6.63;3.67;;;23.80;99.90;;;;;;5031807;28;20099;-75
2023/06/23 10:06:28;;;;;;;7.55;4.72;;;23.60;99.90;;;;;;5032171;28;20041;-74
2023/06/23 10:08:56;;;;;;;6.90;4.70;;;23.90;99.90;;;;;;5048590;28;20509;-76
2023/06/23 10:11:32;;;;;;;5.72;4.30;;;23.90;99.90;;;;;;5032307;28;20400;-75
2023/06/23 10:14:01;;;;;;;7.57;4.28;;;23.60;99.90;;;;;;5032117;28;20409;-75
2023/06/23 10:16:27;;;;;;;9.98;4.72;;;23.40;99.90;;;;;;5031880;28;20045;-74
2023/06/23 10:18:53;;;;;;;6.55;4.40;;;23.50;99.90;;;;;;5031601;28;20060;-75
2023/06/23 10:21:20;;;;;;;6.68;4.35;;;23.60;99.90;;;;;;5031892;28;20490;-75
2023/06/23 10:23:47;;;;;;;5.15;4.30;;;23.70;99.90;;;;;;5048031;28;20042;-75
2023/06/23 10:26:14;;;;;;;6.03;4.25;;;23.90;99.90;;;;;;5031693;28;20045;-74
2023/06/23 10:28:43;;;;;;;5.43;4.38;;;24.00;99.90;;;;;;5031902;28;20064;-75
2023/06/23 10:31:09;;;;;;;7.32;4.47;;;24.20;99.90;;;;;;5031548;28;20045;-75
2023/06/23 10:33:38;;;;;;;7.70;4.40;;;24.30;99.90;;;;;;5048133;28;20588;-75
2023/06/23 10:36:07;;;;;;;8.68;4.88;;;24.40;99.90;;;;;;5031924;28;20041;-77
2023/06/23 10:38:33;;;;;;;6.32;4.18;;;24.60;99.90;;;;;;5031490;28;20095;-75
2023/06/23 10:41:00;;;;;;;8.52;4.20;;;24.40;99.90;;;;;;5031599;28;20079;-74
2023/06/23 10:43:33;;;;;;;5.63;4.25;;;24.00;99.90;;;;;;5031164;28;20085;-74
2023/06/23 10:46:00;;;;;;;6.38;3.78;;;23.80;99.90;;;;;;5047971;28;20037;-74
2023/06/23 10:48:26;;;;;;;4.70;3.78;;;24.10;99.90;;;;;;5028875;28;20620;-74
2023/06/23 10:50:52;;;;;;;11.48;4.40;;;24.20;99.90;;;;;;5028845;28;20052;-75
2023/06/23 10:53:20;;;;;;;5.38;4.05;;;24.10;99.90;;;;;;5042451;28;20046;-74
2023/06/23 10:55:47;;;;;;;5.53;3.10;;;24.20;99.90;;;;;;5027849;28;20389;-75
2023/06/23 10:58:17;;;;;;;6.68;4.15;;;24.60;99.90;;;;;;5029406;28;20640;-75
2023/06/23 11:00:55;;;;;;;9.32;4.35;;;24.80;99.90;;;;;;5046240;28;20471;-75
2023/06/23 11:03:29;;;;;;;7.07;3.78;;;24.70;99.90;;;;;;5030026;28;20040;-74
2023/06/23 11:05:56;;;;;;;9.63;5.03;;;24.80;99.90;;;;;;5030462;28;20052;-75
2023/06/23 11:08:32;;;;;;;5.50;4.00;;;25.00;99.90;;;;;;5047713;28;20455;-74
2023/06/23 11:11:05;;;;;;;5.78;4.20;;;25.10;99.90;;;;;;5030716;28;20071;-75
2023/06/23 11:13:44;;;;;;;5.68;3.40;;;24.80;99.90;;;;;;5030553;28;20041;-75
2023/06/23 11:16:15;;;;;;;5.95;3.30;;;24.70;99.90;;;;;;5024328;28;20045;-74
2023/06/23 11:18:55;;;;;;;6.10;4.07;;;24.90;99.90;;;;;;5030566;28;20096;-74
2023/06/23 11:21:27;;;;;;;3.92;3.53;;;24.90;99.90;;;;;;5025774;28;20026;-74
2023/06/23 11:24:10;;;;;;;10.45;5.13;;;25.00;99.90;;;;;;5021975;28;20050;-74
2023/06/23 11:26:36;;;;;;;6.95;5.10;;;25.00;99.90;;;;;;5020440;28;20045;-75
2023/06/23 11:29:07;;;;;;;5.32;4.40;;;24.60;99.90;;;;;;5023709;28;20405;-75
2023/06/23 11:31:33;;;;;;;5.80;4.28;;;24.80;99.90;;;;;;5023507;28;20049;-75
2023/06/23 11:34:00;;;;;;;7.40;5.45;;;25.10;99.90;;;;;;5042937;28;20033;-75
2023/06/23 11:36:27;;;;;;;8.63;5.40;;;25.20;99.90;;;;;;5021798;28;20046;-77
2023/06/23 11:38:55;;;;;;;9.77;5.85;;;25.20;99.90;;;;;;5020615;28;20073;-75
2023/06/23 11:41:28;;;;;;;6.25;4.80;;;25.10;99.90;;;;;;5029627;28;20041;-74
2023/06/23 11:43:58;;;;;;;8.93;5.78;;;25.30;99.90;;;;;;5029693;28;20056;-75
2023/06/23 11:46:24;;;;;;;6.90;4.88;;;25.40;99.90;;;;;;5030174;28;20116;-74
2023/06/23 11:48:49;;;;;;;7.35;5.20;;;25.50;99.90;;;;;;5018442;28;20136;-76
2023/06/23 11:51:16;;;;;;;5.80;4.22;;;25.30;99.90;;;;;;5020925;28;20088;-75
2023/06/23 11:53:43;;;;;;;4.53;3.60;;;25.10;99.90;;;;;;5020580;28;20559;-76
2023/06/23 11:56:13;;;;;;;5.15;3.50;;;25.20;99.90;;;;;;5020935;28;20500;-75
2023/06/23 11:58:38;;;;;;;5.25;3.47;;;25.40;99.90;;;;;;5018277;28;20046;-74
2023/06/23 12:01:04;;;;;;;5.65;3.33;;;25.40;99.90;;;;;;5027712;28;20039;-75
2023/06/23 12:03:31;;;;;;;7.18;3.88;;;25.50;99.90;;;;;;5017086;28;20588;-74
2023/06/23 12:05:59;;;;;;;4.53;3.42;;;25.40;99.90;;;;;;5028946;28;20037;-75
2023/06/23 12:08:26;;;;;;;4.57;2.88;;;25.50;99.90;;;;;;5011621;28;20037;-75
2023/06/23 12:10:53;;;;;;;4.97;2.85;;;25.60;99.50;;;;;;5040059;28;20083;-74
2023/06/23 12:13:19;;;;;;;5.07;2.55;;;25.90;98.80;;;;;;5020763;28;20521;-75
2023/06/23 12:15:45;;;;;;;5.05;2.90;;;26.00;97.80;;;;;;5016142;28;20068;-75
2023/06/23 12:18:11;;;;;;;4.07;3.20;;;26.00;97.30;;;;;;5027900;28;20120;-75
2023/06/23 12:20:47;;;;;;;7.82;3.28;;;26.10;98.50;;;;;;5026808;28;20038;-75
2023/06/23 12:23:13;;;;;;;4.95;2.60;;;26.40;97.80;;;;;;5027799;28;20099;-76
2023/06/23 12:25:47;;;;;;;3.78;2.40;;;26.50;97.60;;;;;;5037077;28;20124;-75
2023/06/23 12:28:15;;;;;;;4.97;2.70;;;26.20;93.50;;;;;;5018416;28;20041;-75
2023/06/23 12:30:43;;;;;;;5.65;2.65;;;26.10;95.00;;;;;;5025841;28;20037;-74
2023/06/23 12:33:37;;;;;;;7.53;2.65;;;26.10;94.70;;;;;;5025966;28;20121;-75
2023/06/23 12:36:05;;;;;;;4.30;2.78;;;26.10;95.20;;;;;;5020968;28;20068;-75
2023/06/23 12:38:36;;;;;;;6.18;2.60;;;26.20;95.60;;;;;;5020276;28;20042;-75
2023/06/23 12:41:15;;;;;;;4.53;2.75;;;26.30;95.70;;;;;;5018577;28;20069;-76
2023/06/23 12:43:42;;;;;;;4.50;3.15;;;26.50;95.30;;;;;;5017544;28;20132;-76
2023/06/23 12:46:11;;;;;;;3.95;2.80;;;26.30;94.30;;;;;;5027516;28;20037;-76
2023/06/23 12:48:39;;;;;;;4.97;3.05;;;26.20;94.50;;;;;;5011410;28;20531;-75
2023/06/23 12:51:05;;;;;;;3.28;2.60;;;26.10;94.70;;;;;;5024051;28;20081;-76
2023/06/23 12:53:31;;;;;;;4.03;2.55;;;26.10;95.00;;;;;;5018969;28;20054;-75